createdAt,value
2018-05-07T00:00:10.566Z,19.6
2018-05-07T00:01:00.930Z,19.6
2018-05-07T00:01:50.357Z,19.6
2018-05-07T00:02:40.740Z,19.6
2018-05-07T00:03:30.044Z,19.6
2018-05-07T00:04:20.339Z,19.6
2018-05-07T00:05:10.680Z,19.6
2018-05-07T00:06:03.416Z,19.6
2018-05-07T00:06:51.010Z,19.6
2018-05-07T00:07:41.209Z,19.6
2018-05-07T00:08:29.751Z,19.6
2018-05-07T00:09:21.161Z,19.6
2018-05-07T00:10:11.296Z,19.6
2018-05-07T00:11:01.704Z,19.6
2018-05-07T00:11:52.359Z,19.6
2018-05-07T00:12:41.337Z,19.6
2018-05-07T00:13:31.096Z,19.6
2018-05-07T00:14:21.164Z,19.6
2018-05-07T00:15:11.694Z,19.6
2018-05-07T00:16:00.960Z,19.6
2018-05-07T00:16:51.208Z,19.6
2018-05-07T00:17:41.307Z,19.6
2018-05-07T00:18:32.050Z,19.6
2018-05-07T00:19:21.172Z,19.6
2018-05-07T00:20:11.489Z,19.6
2018-05-07T00:21:01.237Z,19.6
2018-05-07T00:21:51.328Z,19.6
2018-05-07T00:22:41.292Z,19.6
2018-05-07T00:23:32.643Z,19.6
2018-05-07T00:24:21.831Z,19.6
2018-05-07T00:25:10.774Z,19.6
2018-05-07T00:26:01.694Z,19.6
2018-05-07T00:26:51.380Z,19.6
2018-05-07T00:27:42.484Z,19.6
2018-05-07T00:28:33.140Z,19.6
2018-05-07T00:29:22.753Z,19.6
2018-05-07T00:30:11.754Z,19.6
2018-05-07T00:31:02.724Z,19.6
2018-05-07T00:31:52.228Z,19.6
2018-05-07T00:32:43.099Z,19.6
2018-05-07T00:33:32.261Z,19.6
2018-05-07T00:34:22.131Z,19.6
2018-05-07T00:35:13.448Z,19.6
2018-05-07T00:36:03.261Z,19.6
2018-05-07T00:36:51.695Z,19.6
2018-05-07T00:37:43.680Z,19.6
2018-05-07T00:38:33.032Z,19.6
2018-05-07T00:39:23.273Z,19.6
2018-05-07T00:40:13.136Z,19.6
2018-05-07T00:41:03.115Z,19.6
2018-05-07T00:41:52.618Z,19.6
2018-05-07T00:42:43.578Z,19.6
2018-05-07T00:43:32.800Z,19.6
2018-05-07T00:44:23.703Z,19.6
2018-05-07T00:45:13.719Z,19.6
2018-05-07T00:46:03.220Z,19.6
2018-05-07T00:46:54.437Z,19.6
2018-05-07T00:47:44.183Z,19.6
2018-05-07T00:48:33.922Z,19.6
2018-05-07T00:49:24.239Z,19.6
2018-05-07T00:50:14.348Z,19.6
2018-05-07T00:51:04.453Z,19.6
2018-05-07T00:51:54.204Z,19.6
2018-05-07T00:52:44.831Z,19.6
2018-05-07T00:53:34.963Z,19.6
2018-05-07T00:54:24.371Z,19.6
2018-05-07T00:55:13.922Z,19.6
2018-05-07T00:56:04.257Z,19.6
2018-05-07T00:56:54.324Z,19.6
2018-05-07T00:57:44.954Z,19.6
2018-05-07T00:58:34.722Z,19.6
2018-05-07T00:59:24.524Z,19.6
2018-05-07T01:00:14.264Z,19.6
2018-05-07T01:01:04.706Z,19.6
2018-05-07T01:01:54.458Z,19.6
2018-05-07T01:02:45.687Z,19.6
2018-05-07T01:03:35.124Z,19.6
2018-05-07T01:04:25.531Z,19.6
2018-05-07T01:05:14.959Z,19.6
2018-05-07T01:06:05.308Z,19.6
2018-05-07T01:06:54.864Z,19.6
2018-05-07T01:07:45.411Z,19.6
2018-05-07T01:08:35.807Z,19.6
2018-05-07T01:09:25.899Z,19.6
2018-05-07T01:10:14.789Z,19.6
2018-05-07T01:11:05.442Z,19.6
2018-05-07T01:11:55.500Z,19.6
2018-05-07T01:12:47.141Z,19.6
2018-05-07T01:13:35.609Z,19.6
2018-05-07T01:14:25.691Z,19.6
2018-05-07T01:15:16.050Z,19.6
2018-05-07T01:16:06.593Z,19.6
2018-05-07T01:16:56.485Z,19.6
2018-05-07T01:17:45.957Z,19.6
2018-05-07T01:18:35.958Z,19.6
2018-05-07T01:19:26.047Z,19.6
2018-05-07T01:20:16.087Z,19.6
2018-05-07T01:21:06.992Z,19.6
2018-05-07T01:21:56.570Z,19.6
2018-05-07T01:22:47.107Z,19.6
2018-05-07T01:23:37.225Z,19.6
2018-05-07T01:24:26.543Z,19.6
2018-05-07T01:25:17.100Z,19.6
2018-05-07T01:26:06.886Z,19.6
2018-05-07T01:26:56.445Z,19.6
2018-05-07T01:27:47.061Z,19.6
2018-05-07T01:28:36.208Z,19.6
2018-05-07T01:29:26.624Z,19.6
2018-05-07T01:30:16.948Z,19.6
2018-05-07T01:31:06.105Z,19.6
2018-05-07T01:31:56.775Z,19.6
2018-05-07T01:32:47.677Z,19.6
2018-05-07T01:33:36.915Z,19.6
2018-05-07T01:34:27.239Z,19.6
2018-05-07T01:35:17.306Z,19.6
2018-05-07T01:36:07.944Z,19.6
2018-05-07T01:36:57.440Z,19.6
2018-05-07T01:37:47.747Z,19.6
2018-05-07T01:38:38.150Z,19.6
2018-05-07T01:39:28.071Z,19.6
2018-05-07T01:40:18.518Z,19.6
2018-05-07T01:41:07.451Z,19.6
2018-05-07T01:41:58.351Z,19.6
2018-05-07T01:42:48.726Z,19.6
2018-05-07T01:43:38.220Z,19.6
2018-05-07T01:44:28.067Z,19.6
2018-05-07T01:45:18.418Z,19.5
2018-05-07T01:46:08.383Z,19.6
2018-05-07T01:46:58.809Z,19.6
2018-05-07T01:47:48.501Z,19.5
2018-05-07T01:48:38.978Z,19.6
2018-05-07T01:49:28.363Z,19.5
2018-05-07T01:50:19.076Z,19.5
2018-05-07T01:51:09.428Z,19.5
2018-05-07T01:51:58.893Z,19.5
2018-05-07T01:52:49.164Z,19.5
2018-05-07T01:53:38.717Z,19.5
2018-05-07T01:54:29.728Z,19.5
2018-05-07T01:55:18.890Z,19.5
2018-05-07T01:56:09.161Z,19.5
2018-05-07T01:56:59.552Z,19.6
2018-05-07T01:57:49.103Z,19.5
2018-05-07T01:58:39.070Z,19.5
2018-05-07T01:59:29.775Z,19.5
2018-05-07T02:00:19.483Z,19.6
2018-05-07T02:01:09.829Z,19.5
2018-05-07T02:01:59.634Z,19.6
2018-05-07T02:02:49.444Z,19.5
2018-05-07T02:03:39.508Z,19.5
2018-05-07T02:04:29.826Z,19.5
2018-05-07T07:27:08.220Z,19.4
2018-05-07T07:27:58.406Z,19.4
2018-05-07T07:28:48.609Z,19.4
2018-05-07T07:29:38.699Z,19.4
2018-05-07T07:30:28.726Z,19.4
2018-05-07T07:31:18.615Z,19.4
2018-05-07T07:32:08.575Z,19.4
2018-05-07T07:32:58.680Z,19.4
2018-05-07T07:33:49.391Z,19.4
2018-05-07T07:34:38.216Z,19.4
2018-05-07T07:35:29.364Z,19.4
2018-05-07T07:36:18.932Z,19.4
2018-05-07T07:37:09.295Z,19.4
2018-05-07T07:37:59.282Z,19.4
2018-05-07T07:38:48.402Z,19.4
2018-05-07T07:39:39.741Z,19.4
2018-05-07T07:40:29.259Z,19.4
2018-05-07T07:41:17.365Z,19.4
2018-05-07T07:42:08.588Z,19.4
2018-05-07T07:42:58.897Z,19.4
2018-05-07T07:43:48.405Z,19.4
2018-05-07T07:44:39.895Z,19.4
2018-05-07T07:45:28.561Z,19.4
2018-05-07T07:46:19.929Z,19.4
2018-05-07T07:47:12.108Z,19.4
2018-05-07T07:47:59.834Z,19.4
2018-05-07T07:48:49.329Z,19.4
2018-05-07T07:49:39.994Z,19.4
2018-05-07T07:50:29.196Z,19.4
2018-05-07T07:51:19.822Z,19.4
2018-05-07T07:52:09.816Z,19.4
2018-05-07T07:52:59.965Z,19.4
2018-05-07T07:53:50.530Z,19.4
2018-05-07T07:54:39.807Z,19.4
2018-05-07T07:55:29.580Z,19.4
2018-05-07T07:56:20.827Z,19.4
2018-05-07T07:57:09.146Z,19.4
2018-05-07T07:58:00.334Z,19.4
2018-05-07T07:58:48.714Z,19.4
2018-05-07T07:59:39.923Z,19.4
2018-05-07T08:00:29.963Z,19.4
2018-05-07T08:01:20.647Z,19.4
2018-05-07T08:02:10.614Z,19.4
2018-05-07T08:02:59.812Z,19.4
2018-05-07T08:03:49.974Z,19.4
2018-05-07T08:04:39.867Z,19.4
2018-05-07T08:05:29.991Z,19.4
2018-05-07T08:06:20.276Z,19.4
2018-05-07T08:07:10.014Z,19.4
2018-05-07T08:07:59.765Z,19.4
2018-05-07T08:08:50.708Z,19.4
2018-05-07T08:09:41.280Z,19.4
2018-05-07T08:10:31.368Z,19.4
2018-05-07T08:11:21.488Z,19.4
2018-05-07T08:12:12.002Z,19.4
2018-05-07T08:13:01.383Z,19.4
2018-05-07T08:13:51.652Z,19.4
2018-05-07T08:14:40.220Z,19.4
2018-05-07T08:15:31.374Z,19.4
2018-05-07T08:16:21.778Z,19.4
2018-05-07T08:17:12.176Z,19.4
2018-05-07T08:18:02.193Z,19.4
2018-05-07T08:18:51.388Z,19.4
2018-05-07T08:19:42.272Z,19.4
2018-05-07T08:20:32.100Z,19.4
2018-05-07T08:21:21.933Z,19.4
2018-05-07T08:22:12.247Z,19.4
2018-05-07T08:23:02.633Z,19.4
2018-05-07T08:23:52.166Z,19.4
2018-05-07T08:24:42.501Z,19.4
2018-05-07T08:25:32.739Z,19.4
2018-05-07T08:26:22.273Z,19.4
2018-05-07T08:27:12.309Z,19.4
2018-05-07T08:28:02.974Z,19.4
2018-05-07T08:28:53.043Z,19.4
2018-05-07T08:29:42.812Z,19.4
2018-05-07T08:30:34.457Z,19.4
2018-05-07T08:31:22.429Z,19.4
2018-05-07T08:32:12.707Z,19.4
2018-05-07T08:33:03.138Z,19.4
2018-05-07T08:33:52.861Z,19.4
2018-05-07T08:34:43.272Z,19.4
2018-05-07T08:35:33.561Z,19.4
2018-05-07T08:36:23.386Z,19.4
2018-05-07T08:37:13.615Z,19.4
2018-05-07T08:38:04.400Z,19.4
2018-05-07T08:38:54.073Z,19.4
2018-05-07T08:39:44.201Z,19.4
2018-05-07T08:40:33.055Z,19.4
2018-05-07T08:41:23.984Z,19.4
2018-05-07T08:42:14.006Z,19.4
2018-05-07T08:43:04.438Z,19.4
2018-05-07T08:43:54.478Z,19.4
2018-05-07T08:44:43.981Z,19.4
2018-05-07T08:45:34.047Z,19.4
2018-05-07T08:46:24.070Z,19.4
2018-05-07T08:47:14.509Z,19.4
2018-05-07T08:48:04.225Z,19.4
2018-05-07T08:48:53.464Z,19.4
2018-05-07T08:49:44.153Z,19.4
2018-05-07T08:50:34.473Z,19.4
2018-05-07T08:51:25.004Z,19.4
2018-05-07T08:52:14.813Z,19.4
2018-05-07T08:53:06.767Z,19.4
2018-05-07T08:53:54.666Z,19.4
2018-05-07T08:54:45.308Z,19.4
2018-05-07T08:55:35.362Z,19.4
2018-05-07T08:56:24.883Z,19.4
2018-05-07T08:57:14.731Z,19.4
2018-05-07T08:58:04.748Z,19.4
2018-05-07T08:58:55.071Z,19.4
2018-05-07T08:59:45.228Z,19.4
2018-05-07T09:00:34.629Z,19.4
2018-05-07T09:01:25.913Z,19.4
2018-05-07T09:02:16.798Z,19.4
2018-05-07T09:03:04.667Z,19.4
2018-05-07T09:03:54.997Z,19.4
2018-05-07T09:04:45.873Z,19.4
2018-05-07T09:05:35.633Z,19.4
2018-05-07T09:06:23.664Z,19.4
2018-05-07T09:07:15.740Z,19.4
2018-05-07T09:08:06.794Z,19.4
2018-05-07T09:08:55.864Z,19.4
2018-05-07T09:09:46.460Z,19.4
2018-05-07T09:10:36.317Z,19.4
2018-05-07T09:11:26.423Z,19.4
2018-05-07T09:12:15.284Z,19.4
2018-05-07T09:13:05.675Z,19.4
2018-05-07T09:13:55.737Z,19.4
2018-05-07T09:14:45.103Z,19.4
2018-05-07T09:15:34.539Z,19.4
2018-05-07T09:16:26.545Z,19.4
2018-05-07T09:17:16.269Z,19.4
2018-05-07T09:18:07.149Z,19.4
2018-05-07T09:18:56.110Z,19.4
2018-05-07T09:19:47.002Z,19.4
2018-05-07T09:20:36.544Z,19.4
2018-05-07T09:21:27.116Z,19.4
2018-05-07T09:22:16.644Z,19.4
2018-05-07T09:23:06.689Z,19.4
2018-05-07T09:23:57.254Z,19.4
2018-05-07T09:24:47.968Z,19.4
2018-05-07T09:25:36.641Z,19.4
2018-05-07T09:26:26.819Z,19.4
2018-05-07T09:27:17.419Z,19.4
2018-05-07T09:28:06.257Z,19.4
2018-05-07T09:28:58.120Z,19.4
2018-05-07T09:29:47.812Z,19.4
2018-05-07T09:30:37.017Z,19.4
2018-05-07T09:31:28.179Z,19.4
2018-05-07T09:32:17.206Z,19.4
2018-05-07T09:33:08.087Z,19.4
2018-05-07T09:33:57.311Z,19.4
2018-05-07T09:34:47.896Z,19.4
2018-05-07T09:35:37.928Z,19.4
2018-05-07T09:36:28.006Z,19.4
2018-05-07T09:37:18.399Z,19.4
2018-05-07T09:38:07.608Z,19.4
2018-05-07T09:38:58.775Z,19.4
2018-05-07T09:39:48.842Z,19.4
2018-05-07T09:40:38.640Z,19.4
2018-05-07T09:41:29.043Z,19.4
2018-05-07T09:42:18.496Z,19.4
2018-05-07T09:43:09.351Z,19.4
2018-05-07T09:43:58.602Z,19.4
2018-05-07T09:44:48.714Z,19.4
2018-05-07T09:45:38.197Z,19.4
2018-05-07T09:46:29.077Z,19.4
2018-05-07T09:47:18.618Z,19.4
2018-05-07T09:48:08.396Z,19.4
2018-05-07T09:48:59.806Z,19.4
2018-05-07T09:49:49.415Z,19.4
2018-05-07T09:50:38.307Z,19.4
2018-05-07T09:51:29.504Z,19.4
2018-05-07T09:52:19.600Z,19.4
2018-05-07T09:53:09.331Z,19.4
2018-05-07T09:53:59.652Z,19.4
2018-05-07T09:54:49.451Z,19.4
2018-05-07T09:55:39.850Z,19.4
2018-05-07T09:56:30.142Z,19.4
2018-05-07T09:57:20.201Z,19.4
2018-05-07T09:58:10.023Z,19.4
2018-05-07T09:58:59.596Z,19.4
2018-05-07T09:59:50.165Z,19.4
2018-05-07T10:00:39.709Z,19.4
2018-05-07T10:01:30.271Z,19.4
2018-05-07T10:02:20.338Z,19.4
2018-05-07T10:03:10.692Z,19.4
2018-05-07T10:04:00.476Z,19.4
2018-05-07T10:04:50.533Z,19.4
2018-05-07T10:05:40.360Z,19.4
2018-05-07T10:06:30.483Z,19.4
2018-05-07T10:07:20.986Z,19.4
2018-05-07T10:08:10.208Z,19.4
2018-05-07T10:09:00.587Z,19.4
2018-05-07T10:09:50.908Z,19.4
2018-05-07T10:10:40.140Z,19.4
2018-05-07T10:11:30.505Z,19.4
2018-05-07T10:12:21.415Z,19.4
2018-05-07T10:13:10.616Z,19.4
2018-05-07T10:14:01.003Z,19.4
2018-05-07T10:14:51.267Z,19.4
2018-05-07T10:15:41.705Z,19.4
2018-05-07T10:16:31.442Z,19.4
2018-05-07T10:17:21.535Z,19.4
2018-05-07T10:18:11.579Z,19.4
2018-05-07T10:19:01.925Z,19.4
2018-05-07T10:19:51.232Z,19.4
2018-05-07T10:20:41.788Z,19.4
2018-05-07T10:21:31.587Z,19.4
2018-05-07T10:22:21.063Z,19.4
2018-05-07T10:23:11.784Z,19.4
2018-05-07T10:24:01.085Z,19.4
2018-05-07T10:24:51.614Z,19.4
2018-05-07T10:25:41.375Z,19.4
2018-05-07T10:26:31.991Z,19.4
2018-05-07T10:27:21.560Z,19.4
2018-05-07T10:28:10.204Z,19.4
2018-05-07T10:29:01.752Z,19.4
2018-05-07T10:29:52.247Z,19.4
2018-05-07T10:30:42.061Z,19.4
2018-05-07T10:31:31.558Z,19.4
2018-05-07T10:32:22.229Z,19.4
2018-05-07T10:33:12.241Z,19.4
2018-05-07T10:34:03.095Z,19.4
2018-05-07T10:34:52.900Z,19.4
2018-05-07T10:35:42.687Z,19.4
2018-05-07T10:36:32.280Z,19.4
2018-05-07T10:37:23.066Z,19.4
2018-05-07T10:38:13.134Z,19.4
2018-05-07T10:39:02.073Z,19.4
2018-05-07T10:39:52.415Z,19.4
2018-05-07T10:40:42.034Z,19.4
2018-05-07T10:41:32.823Z,19.4
2018-05-07T10:42:23.746Z,19.4
2018-05-07T10:43:11.561Z,19.4
2018-05-07T10:44:02.886Z,19.4
2018-05-07T10:44:53.680Z,19.4
2018-05-07T10:45:44.029Z,19.4
2018-05-07T10:46:34.123Z,19.4
2018-05-07T10:47:23.622Z,19.4
2018-05-07T10:48:13.925Z,19.4
2018-05-07T10:49:04.472Z,19.4
2018-05-07T10:49:53.850Z,19.4
2018-05-07T10:50:43.327Z,19.4
2018-05-07T10:51:33.395Z,19.4
2018-05-07T10:52:23.468Z,19.4
2018-05-07T10:53:13.791Z,19.4
2018-05-07T10:54:03.292Z,19.4
2018-05-07T10:54:53.910Z,19.4
2018-05-07T10:55:43.973Z,19.4
2018-05-07T10:56:34.667Z,19.4
2018-05-07T10:57:23.319Z,19.4
2018-05-07T10:58:14.813Z,19.4
2018-05-07T10:59:04.503Z,19.4
2018-05-07T10:59:54.692Z,19.4
2018-05-07T11:00:44.602Z,19.4
2018-05-07T11:01:33.901Z,19.4
2018-05-07T11:02:24.802Z,19.4
2018-05-07T11:03:13.980Z,19.4
2018-05-07T11:04:04.896Z,19.4
2018-05-07T11:04:54.476Z,19.4
2018-05-07T11:05:45.824Z,19.4
2018-05-07T11:06:35.638Z,19.4
2018-05-07T11:07:26.085Z,19.4
2018-05-07T11:08:14.973Z,19.4
2018-05-07T11:09:03.874Z,19.4
2018-05-07T11:09:55.075Z,19.4
2018-05-07T11:10:45.379Z,19.4
2018-05-07T11:11:35.761Z,19.4
2018-05-07T11:12:25.406Z,19.4
2018-05-07T11:13:15.599Z,19.4
2018-05-07T11:14:05.403Z,19.4
2018-05-07T11:14:55.826Z,19.4
2018-05-07T11:15:45.519Z,19.4
2018-05-07T11:16:35.973Z,19.4
2018-05-07T11:17:26.311Z,19.4
2018-05-07T11:18:16.378Z,19.4
2018-05-07T11:19:06.383Z,19.4
2018-05-07T11:19:57.515Z,19.4
2018-05-07T11:20:45.647Z,19.4
2018-05-07T11:21:36.262Z,19.4
2018-05-07T11:22:26.085Z,19.4
2018-05-07T11:23:16.682Z,19.4
2018-05-07T11:24:05.094Z,19.4
2018-05-07T11:24:56.304Z,19.4
2018-05-07T11:25:46.385Z,19.4
2018-05-07T11:26:36.437Z,19.4
2018-05-07T11:27:26.727Z,19.4
2018-05-07T11:28:16.545Z,19.4
2018-05-07T11:29:06.930Z,19.4
2018-05-07T11:29:56.697Z,19.4
2018-05-07T11:30:46.719Z,19.4
2018-05-07T11:31:37.647Z,19.4
2018-05-07T11:32:27.051Z,19.4
2018-05-07T11:33:17.415Z,19.4
2018-05-07T11:34:07.604Z,19.4
2018-05-07T11:34:57.681Z,19.4
2018-05-07T11:35:47.631Z,19.4
2018-05-07T11:36:36.852Z,19.4
2018-05-07T11:37:27.197Z,19.4
2018-05-07T11:38:17.852Z,19.4
2018-05-07T11:39:08.348Z,19.4
2018-05-07T11:39:58.012Z,19.4
2018-05-07T11:40:48.043Z,19.4
2018-05-07T11:41:37.289Z,19.4
2018-05-07T11:42:27.909Z,19.4
2018-05-07T11:43:17.689Z,19.4
2018-05-07T11:44:06.319Z,19.4
2018-05-07T11:44:57.341Z,19.4
2018-05-07T11:45:48.002Z,19.4
2018-05-07T11:46:37.947Z,19.4
2018-05-07T11:47:29.165Z,19.5
2018-05-07T11:48:18.584Z,19.4
2018-05-07T11:49:07.592Z,19.4
2018-05-07T11:49:58.227Z,19.5
2018-05-07T11:50:49.095Z,19.4
2018-05-07T11:51:38.582Z,19.4
2018-05-07T11:52:28.126Z,19.4
2018-05-07T11:53:20.857Z,19.5
2018-05-07T11:54:08.511Z,19.5
2018-05-07T11:54:58.590Z,19.5
2018-05-07T11:55:48.955Z,19.5
2018-05-07T11:56:38.769Z,19.5
2018-05-07T11:57:29.627Z,19.5
2018-05-07T11:58:19.115Z,19.5
2018-05-07T11:59:08.241Z,19.5
2018-05-07T11:59:59.256Z,19.5
2018-05-07T12:00:49.100Z,19.5
2018-05-07T12:01:39.704Z,19.5
2018-05-07T12:02:30.475Z,19.5
2018-05-07T12:03:18.746Z,19.5
2018-05-07T12:04:07.998Z,19.5
2018-05-07T12:04:58.872Z,19.5
2018-05-07T12:05:49.928Z,19.5
2018-05-07T12:06:39.231Z,19.5
2018-05-07T12:07:29.617Z,19.5
2018-05-07T12:08:19.376Z,19.5
2018-05-07T12:09:11.268Z,19.5
2018-05-07T12:09:59.811Z,19.5
2018-05-07T12:10:49.559Z,19.5
2018-05-07T12:11:39.953Z,19.5
2018-05-07T12:12:30.810Z,19.5
2018-05-07T12:13:19.178Z,19.5
2018-05-07T12:14:10.131Z,19.5
2018-05-07T12:14:59.871Z,19.5
2018-05-07T12:15:52.270Z,19.5
2018-05-07T12:16:41.173Z,19.5
2018-05-07T12:17:30.683Z,19.5
2018-05-07T12:18:21.272Z,19.5
2018-05-07T12:19:10.524Z,19.6
2018-05-07T12:20:01.066Z,19.6
2018-05-07T12:20:51.207Z,19.5
2018-05-07T12:21:41.477Z,19.6
2018-05-07T12:22:30.451Z,19.6
2018-05-07T12:23:23.054Z,19.6
2018-05-07T12:24:11.743Z,19.5
2018-05-07T12:25:00.859Z,19.6
2018-05-07T12:25:51.289Z,19.6
2018-05-07T12:26:40.768Z,19.6
2018-05-07T12:27:31.930Z,19.6
2018-05-07T12:28:21.233Z,19.6
2018-05-07T12:29:11.237Z,19.6
2018-05-07T12:30:01.572Z,19.6
2018-05-07T12:30:51.915Z,19.6
2018-05-07T12:31:44.910Z,19.6
2018-05-07T12:32:31.762Z,19.6
2018-05-07T12:33:21.576Z,19.6
2018-05-07T12:34:12.241Z,19.6
2018-05-07T12:35:01.421Z,19.6
2018-05-07T12:35:52.120Z,19.6
2018-05-07T12:36:42.116Z,19.6
2018-05-07T12:37:32.434Z,19.6
2018-05-07T12:38:21.700Z,19.6
2018-05-07T12:39:11.472Z,19.6
2018-05-07T12:40:02.970Z,19.6
2018-05-07T12:40:52.971Z,19.6
2018-05-07T12:41:43.031Z,19.6
2018-05-07T12:42:33.128Z,19.6
2018-05-07T12:43:22.073Z,19.6
2018-05-07T12:44:12.952Z,19.6
2018-05-07T12:45:02.535Z,19.6
2018-05-07T12:45:52.824Z,19.6
2018-05-07T12:46:42.120Z,19.6
2018-05-07T12:47:32.416Z,19.6
2018-05-07T12:48:22.999Z,19.6
2018-05-07T12:49:13.707Z,19.6
2018-05-07T12:50:02.949Z,19.6
2018-05-07T12:50:52.705Z,19.6
2018-05-07T12:51:43.581Z,19.6
2018-05-07T12:52:34.528Z,19.6
2018-05-07T12:53:22.058Z,19.6
2018-05-07T12:54:12.300Z,19.7
2018-05-07T12:55:03.104Z,19.6
2018-05-07T12:55:52.495Z,19.6
2018-05-07T12:56:43.729Z,19.6
2018-05-07T12:57:32.239Z,19.7
2018-05-07T12:58:23.220Z,19.7
2018-05-07T12:59:13.896Z,19.7
2018-05-07T13:00:03.469Z,19.7
2018-05-07T13:00:52.936Z,19.7
2018-05-07T13:01:43.345Z,19.7
2018-05-07T13:02:33.880Z,19.7
2018-05-07T13:03:24.239Z,19.7
2018-05-07T13:04:15.026Z,19.7
2018-05-07T13:05:04.046Z,19.7
2018-05-07T13:05:55.368Z,19.7
2018-05-07T13:06:44.474Z,19.7
2018-05-07T13:07:35.096Z,19.7
2018-05-07T13:08:24.396Z,19.7
2018-05-07T13:09:13.848Z,19.7
2018-05-07T13:10:04.216Z,19.7
2018-05-07T13:10:53.681Z,19.7
2018-05-07T13:11:45.634Z,19.7
2018-05-07T13:12:34.662Z,19.7
2018-05-07T13:13:24.779Z,19.7
2018-05-07T13:14:15.411Z,19.8
2018-05-07T13:15:05.417Z,19.8
2018-05-07T13:15:53.807Z,19.8
2018-05-07T13:16:44.675Z,19.7
2018-05-07T13:17:35.855Z,19.8
2018-05-07T13:18:25.316Z,19.8
2018-05-07T13:19:16.077Z,19.8
2018-05-07T13:20:05.518Z,19.8
2018-05-07T13:20:56.189Z,19.8
2018-05-07T13:21:45.942Z,19.8
2018-05-07T13:22:36.250Z,19.8
2018-05-07T13:23:26.394Z,19.8
2018-05-07T13:24:16.598Z,19.8
2018-05-07T13:25:06.091Z,19.8
2018-05-07T13:25:56.572Z,19.8
2018-05-07T13:26:46.069Z,19.8
2018-05-07T13:27:35.852Z,19.8
2018-05-07T13:28:25.129Z,19.8
2018-05-07T13:29:16.558Z,19.8
2018-05-07T13:30:05.754Z,19.8
2018-05-07T13:30:56.174Z,19.8
2018-05-07T13:31:46.183Z,19.8
2018-05-07T13:32:36.553Z,19.8
2018-05-07T13:33:26.960Z,19.8
2018-05-07T13:34:16.683Z,19.8
2018-05-07T13:35:06.600Z,19.8
2018-05-07T13:35:57.381Z,19.8
2018-05-07T13:36:47.811Z,19.8
2018-05-07T13:37:36.422Z,19.8
2018-05-07T13:38:26.990Z,19.8
2018-05-07T13:39:17.336Z,19.8
2018-05-07T13:40:07.110Z,19.8
2018-05-07T13:40:57.236Z,19.8
2018-05-07T13:41:47.280Z,19.8
2018-05-07T13:42:37.628Z,19.8
2018-05-07T13:43:27.128Z,19.8
2018-05-07T13:44:16.696Z,19.8
2018-05-07T13:45:08.047Z,19.8
2018-05-07T13:45:57.294Z,19.8
2018-05-07T13:46:48.223Z,19.8
2018-05-07T13:47:37.715Z,19.8
2018-05-07T13:48:28.103Z,19.9
2018-05-07T13:49:17.571Z,19.8
2018-05-07T13:50:07.923Z,19.8
2018-05-07T13:50:57.159Z,19.8
2018-05-07T13:51:48.598Z,19.8
2018-05-07T13:52:37.805Z,19.8
2018-05-07T13:53:28.530Z,19.8
2018-05-07T13:54:18.506Z,19.9
2018-05-07T13:55:08.313Z,19.9
2018-05-07T13:55:58.221Z,19.8
2018-05-07T13:56:49.090Z,19.9
2018-05-07T13:57:38.514Z,19.9
2018-05-07T13:58:29.138Z,19.9
2018-05-07T13:59:18.393Z,19.9
2018-05-07T14:00:09.254Z,19.9
2018-05-07T14:00:59.481Z,19.9
2018-05-07T14:01:49.158Z,19.9
2018-05-07T14:02:40.428Z,19.9
2018-05-07T14:03:28.402Z,19.9
2018-05-07T14:04:19.334Z,19.9
2018-05-07T14:05:09.358Z,19.9
2018-05-07T14:05:59.134Z,19.9
2018-05-07T14:06:48.936Z,19.9
2018-05-07T14:07:39.314Z,19.9
2018-05-07T14:08:30.769Z,19.9
2018-05-07T14:09:18.876Z,19.9
2018-05-07T14:10:08.695Z,19.9
2018-05-07T14:10:58.704Z,19.9
2018-05-07T14:11:49.646Z,19.9
2018-05-07T14:12:40.344Z,19.9
2018-05-07T14:13:29.810Z,19.9
2018-05-07T14:14:19.601Z,19.9
2018-05-07T14:15:09.926Z,19.9
2018-05-07T14:15:59.770Z,19.9
2018-05-07T14:16:51.784Z,19.9
2018-05-07T14:17:40.094Z,19.9
2018-05-07T14:18:30.187Z,19.9
2018-05-07T14:19:19.451Z,19.9
2018-05-07T14:20:10.619Z,19.9
2018-05-07T14:21:00.939Z,19.9
2018-05-07T14:21:51.013Z,19.9
2018-05-07T14:22:39.696Z,19.9
2018-05-07T14:23:30.814Z,19.9
2018-05-07T14:24:20.915Z,19.9
2018-05-07T14:25:10.748Z,20
2018-05-07T14:26:00.854Z,19.9
2018-05-07T14:26:51.097Z,20
2018-05-07T14:27:41.160Z,20
2018-05-07T14:28:31.282Z,20
2018-05-07T14:29:20.495Z,20
2018-05-07T14:30:10.837Z,20
2018-05-07T14:31:00.612Z,20
2018-05-07T14:31:50.718Z,20
2018-05-07T14:32:40.734Z,20
2018-05-07T14:33:32.114Z,20
2018-05-07T14:34:20.920Z,20
2018-05-07T14:35:11.455Z,20
2018-05-07T14:36:01.290Z,20
2018-05-07T14:36:51.629Z,20
2018-05-07T14:37:41.669Z,20
2018-05-07T14:38:32.277Z,20
2018-05-07T14:39:21.800Z,20
2018-05-07T14:40:12.461Z,20
2018-05-07T14:41:02.542Z,20
2018-05-07T14:41:49.795Z,20
2018-05-07T14:42:40.707Z,20
2018-05-07T14:43:29.716Z,20
2018-05-07T14:44:20.397Z,20.1
2018-05-07T14:45:10.075Z,20
2018-05-07T14:46:00.710Z,20
2018-05-07T14:46:50.500Z,20
2018-05-07T14:47:40.567Z,20.1
2018-05-07T14:48:31.137Z,20.1
2018-05-07T14:49:21.204Z,20
2018-05-07T14:50:10.977Z,20.1
2018-05-07T14:51:01.368Z,20
2018-05-07T14:51:50.843Z,20.1
2018-05-07T14:52:41.217Z,20.1
2018-05-07T14:53:30.504Z,20.1
2018-05-07T14:54:21.045Z,20.1
2018-05-07T14:55:11.523Z,20.1
2018-05-07T14:56:01.988Z,20.1
2018-05-07T14:56:51.875Z,20.1
2018-05-07T14:57:41.865Z,20.1
2018-05-07T14:58:31.420Z,20.1
2018-05-07T14:59:21.207Z,20.1
2018-05-07T15:00:12.106Z,20.1
2018-05-07T15:01:02.152Z,20.1
2018-05-07T15:01:51.617Z,20.1
2018-05-07T15:02:41.978Z,20.1
2018-05-07T15:03:30.915Z,20.1
2018-05-07T15:04:22.118Z,20.1
2018-05-07T15:05:12.223Z,20.1
2018-05-07T15:06:02.256Z,20.1
2018-05-07T15:06:52.047Z,20.1
2018-05-07T15:07:42.682Z,20.1
2018-05-07T15:08:32.703Z,20.1
2018-05-07T15:09:21.999Z,20.1
2018-05-07T15:10:11.526Z,20.1
2018-05-07T15:11:04.882Z,20.1
2018-05-07T15:11:54.144Z,20.1
2018-05-07T15:12:44.746Z,20.1
2018-05-07T15:13:34.724Z,20.1
2018-05-07T15:14:24.561Z,20.1
2018-05-07T15:15:14.621Z,20.1
2018-05-07T15:16:04.974Z,20.1
2018-05-07T15:16:55.063Z,20.1
2018-05-07T15:17:45.144Z,20.1
2018-05-07T15:18:35.456Z,20.1
2018-05-07T15:19:24.799Z,20.1
2018-05-07T15:20:15.335Z,20.1
2018-05-07T15:21:04.860Z,20.1
2018-05-07T15:21:54.604Z,20.1
2018-05-07T15:22:44.964Z,20.1
2018-05-07T15:23:36.087Z,20.1
2018-05-07T15:24:25.443Z,20.1
2018-05-07T15:25:15.172Z,20.2
2018-05-07T15:26:05.512Z,20.1
2018-05-07T15:26:54.286Z,20.1
2018-05-07T15:27:45.435Z,20.2
2018-05-07T15:28:34.987Z,20.1
2018-05-07T15:29:26.238Z,20.1
2018-05-07T15:30:15.539Z,20.1
2018-05-07T15:31:05.901Z,20.1
2018-05-07T15:31:56.340Z,20.1
2018-05-07T15:32:45.793Z,20.1
2018-05-07T15:33:35.563Z,20.2
2018-05-07T15:34:26.174Z,20.1
2018-05-07T15:35:15.964Z,20.1
2018-05-07T15:36:06.568Z,20.1
2018-05-07T15:36:56.667Z,20.2
2018-05-07T15:37:46.964Z,20.2
2018-05-07T15:38:35.626Z,20.2
2018-05-07T15:39:26.640Z,20.2
2018-05-07T15:40:16.943Z,20.2
2018-05-07T15:41:07.068Z,20.2
2018-05-07T15:41:56.797Z,20.2
2018-05-07T15:42:44.853Z,20.2
2018-05-07T15:43:36.691Z,20.2
2018-05-07T15:44:26.148Z,20.2
2018-05-07T15:45:17.043Z,20.2
2018-05-07T15:46:06.876Z,20.2
2018-05-07T15:46:57.503Z,20.2
2018-05-07T15:47:47.265Z,20.2
2018-05-07T15:48:37.931Z,20.2
2018-05-07T15:49:29.280Z,20.2
2018-05-07T15:50:17.410Z,20.2
2018-05-07T15:51:07.490Z,20.3
2018-05-07T15:51:57.309Z,20.2
2018-05-07T15:52:47.920Z,20.2
2018-05-07T15:53:37.360Z,20.2
2018-05-07T15:54:27.781Z,20.2
2018-05-07T15:55:18.123Z,20.2
2018-05-07T15:56:09.007Z,20.2
2018-05-07T15:56:58.233Z,20.2
2018-05-07T15:57:47.449Z,20.2
2018-05-07T15:58:38.111Z,20.3
2018-05-07T15:59:28.496Z,20.2
2018-05-07T16:00:17.396Z,20.2
2018-05-07T16:01:08.294Z,20.2
2018-05-07T16:01:58.911Z,20.2
2018-05-07T16:02:50.959Z,20.2
2018-05-07T16:03:38.180Z,20.2
2018-05-07T16:04:28.545Z,20.2
2018-05-07T16:05:18.417Z,20.2
2018-05-07T16:06:07.684Z,20.2
2018-05-07T16:06:59.040Z,20.2
2018-05-07T16:07:48.015Z,20.2
2018-05-07T16:08:39.232Z,20.2
2018-05-07T16:09:28.163Z,20.2
2018-05-07T16:10:18.731Z,20.2
2018-05-07T16:11:09.379Z,20.2
2018-05-07T16:11:58.947Z,20.2
2018-05-07T16:12:49.534Z,20.3
2018-05-07T16:13:39.523Z,20.2
2018-05-07T16:14:29.030Z,20.2
2018-05-07T16:15:21.355Z,20.3
2018-05-07T16:16:09.453Z,20.2
2018-05-07T16:16:59.913Z,20.3
2018-05-07T16:17:50.122Z,20.2
2018-05-07T16:18:40.548Z,20.2
2018-05-07T16:19:29.784Z,20.3
2018-05-07T16:20:18.937Z,20.3
2018-05-07T16:21:09.962Z,20.3
2018-05-07T16:22:02.407Z,20.3
2018-05-07T16:22:50.290Z,20.3
2018-05-07T16:23:41.826Z,20.3
2018-05-07T16:24:30.389Z,20.3
2018-05-07T16:25:19.633Z,20.3
2018-05-07T16:26:10.256Z,20.3
2018-05-07T16:27:00.596Z,20.2
2018-05-07T16:27:50.941Z,20.3
2018-05-07T16:28:40.387Z,20.3
2018-05-07T16:29:30.785Z,20.2